sensor_id;sensor_type;location;lat;lon;timestamp;temperature;humidity
9323;DHT22;4700;48.822;9.270;2023-07-30T00:02:15;17.90;1.00
9323;DHT22;4700;48.822;9.270;2023-07-30T00:05:01;17.80;1.00
9323;DHT22;4700;48.822;9.270;2023-07-30T00:07:47;18.20;1.00
9323;DHT22;4700;48.822;9.270;2023-07-30T00:10:32;17.90;1.00
9323;DHT22;4700;48.822;9.270;2023-07-30T00:13:21;17.70;1.00
9323;DHT22;4700;48.822;9.270;2023-07-30T00:16:07;17.80;1.00
9323;DHT22;4700;48.822;9.270;2023-07-30T00:18:53;17.90;1.00
9323;DHT22;4700;48.822;9.270;2023-07-30T00:21:38;17.70;1.00
9323;DHT22;4700;48.822;9.270;2023-07-30T00:24:26;17.90;1.00
9323;DHT22;4700;48.822;9.270;2023-07-30T00:27:12;17.90;1.00
9323;DHT22;4700;48.822;9.270;2023-07-30T00:30:02;17.60;1.00
9323;DHT22;4700;48.822;9.270;2023-07-30T00:32:47;17.60;1.00
9323;DHT22;4700;48.822;9.270;2023-07-30T00:35:33;17.60;1.00
9323;DHT22;4700;48.822;9.270;2023-07-30T00:41:04;17.30;1.00
9323;DHT22;4700;48.822;9.270;2023-07-30T00:43:50;17.30;1.00
9323;DHT22;4700;48.822;9.270;2023-07-30T00:46:37;17.50;1.00
9323;DHT22;4700;48.822;9.270;2023-07-30T00:49:26;17.40;1.00
9323;DHT22;4700;48.822;9.270;2023-07-30T00:52:12;17.40;1.00
9323;DHT22;4700;48.822;9.270;2023-07-30T00:54:59;17.50;1.00
9323;DHT22;4700;48.822;9.270;2023-07-30T00:57:48;17.50;1.00
9323;DHT22;4700;48.822;9.270;2023-07-30T01:00:25;17.40;1.00
9323;DHT22;4700;48.822;9.270;2023-07-30T01:03:12;17.50;1.00
9323;DHT22;4700;48.822;9.270;2023-07-30T01:05:59;17.20;1.00
9323;DHT22;4700;48.822;9.270;2023-07-30T01:08:48;17.70;1.00
9323;DHT22;4700;48.822;9.270;2023-07-30T01:11:34;17.50;1.00
9323;DHT22;4700;48.822;9.270;2023-07-30T01:14:22;17.20;1.00
9323;DHT22;4700;48.822;9.270;2023-07-30T01:17:11;17.70;1.00
9323;DHT22;4700;48.822;9.270;2023-07-30T01:19:58;17.30;1.00
9323;DHT22;4700;48.822;9.270;2023-07-30T01:22:45;17.40;1.00
9323;DHT22;4700;48.822;9.270;2023-07-30T01:25:36;17.70;1.00
9323;DHT22;4700;48.822;9.270;2023-07-30T01:28:22;17.70;1.00
9323;DHT22;4700;48.822;9.270;2023-07-30T01:31:08;17.40;1.00
9323;DHT22;4700;48.822;9.270;2023-07-30T01:33:55;17.70;1.00
9323;DHT22;4700;48.822;9.270;2023-07-30T01:36:41;17.60;1.00
9323;DHT22;4700;48.822;9.270;2023-07-30T01:39:29;17.40;1.00
9323;DHT22;4700;48.822;9.270;2023-07-30T01:42:15;17.90;1.00
9323;DHT22;4700;48.822;9.270;2023-07-30T01:45:04;17.50;1.00
9323;DHT22;4700;48.822;9.270;2023-07-30T01:47:49;17.60;1.00
9323;DHT22;4700;48.822;9.270;2023-07-30T01:50:38;17.70;1.00
9323;DHT22;4700;48.822;9.270;2023-07-30T01:53:24;17.70;1.00
9323;DHT22;4700;48.822;9.270;2023-07-30T01:56:11;17.70;1.00
9323;DHT22;4700;48.822;9.270;2023-07-30T02:01:43;17.60;1.00
9323;DHT22;4700;48.822;9.270;2023-07-30T02:04:29;17.50;1.00
9323;DHT22;4700;48.822;9.270;2023-07-30T02:10:01;17.80;1.00
9323;DHT22;4700;48.822;9.270;2023-07-30T02:12:49;18.00;1.00
9323;DHT22;4700;48.822;9.270;2023-07-30T02:15:35;17.90;1.00
9323;DHT22;4700;48.822;9.270;2023-07-30T02:18:24;17.80;1.00
9323;DHT22;4700;48.822;9.270;2023-07-30T02:21:10;18.00;1.00
9323;DHT22;4700;48.822;9.270;2023-07-30T02:23:56;18.00;1.00
9323;DHT22;4700;48.822;9.270;2023-07-30T02:26:41;18.00;1.00
9323;DHT22;4700;48.822;9.270;2023-07-30T02:29:29;17.80;1.00
9323;DHT22;4700;48.822;9.270;2023-07-30T02:32:16;17.80;1.00
9323;DHT22;4700;48.822;9.270;2023-07-30T02:35:01;17.90;1.00
9323;DHT22;4700;48.822;9.270;2023-07-30T02:37:47;18.00;1.00
9323;DHT22;4700;48.822;9.270;2023-07-30T02:40:32;17.90;1.00
9323;DHT22;4700;48.822;9.270;2023-07-30T02:43:18;18.20;1.00
9323;DHT22;4700;48.822;9.270;2023-07-30T02:46:05;17.80;1.00
9323;DHT22;4700;48.822;9.270;2023-07-30T02:48:51;18.10;1.00
9323;DHT22;4700;48.822;9.270;2023-07-30T02:51:37;17.80;1.00
9323;DHT22;4700;48.822;9.270;2023-07-30T02:54:23;17.70;1.00
9323;DHT22;4700;48.822;9.270;2023-07-30T02:57:08;17.60;1.00
9323;DHT22;4700;48.822;9.270;2023-07-30T02:59:55;17.90;1.00
9323;DHT22;4700;48.822;9.270;2023-07-30T03:02:42;18.00;1.00
9323;DHT22;4700;48.822;9.270;2023-07-30T03:05:28;17.40;1.00
9323;DHT22;4700;48.822;9.270;2023-07-30T03:08:14;17.80;1.00
9323;DHT22;4700;48.822;9.270;2023-07-30T03:10:59;17.60;1.00
9323;DHT22;4700;48.822;9.270;2023-07-30T03:13:45;17.30;1.00
9323;DHT22;4700;48.822;9.270;2023-07-30T03:16:32;17.60;1.00
9323;DHT22;4700;48.822;9.270;2023-07-30T03:19:19;18.00;1.00
9323;DHT22;4700;48.822;9.270;2023-07-30T03:22:05;17.30;1.00
9323;DHT22;4700;48.822;9.270;2023-07-30T03:24:53;17.40;1.00
9323;DHT22;4700;48.822;9.270;2023-07-30T03:27:39;17.50;1.00
9323;DHT22;4700;48.822;9.270;2023-07-30T03:30:25;17.30;1.00
9323;DHT22;4700;48.822;9.270;2023-07-30T03:33:10;17.80;1.00
9323;DHT22;4700;48.822;9.270;2023-07-30T03:35:57;17.80;1.00
9323;DHT22;4700;48.822;9.270;2023-07-30T03:38:43;17.60;1.00
9323;DHT22;4700;48.822;9.270;2023-07-30T03:41:29;17.50;1.00
9323;DHT22;4700;48.822;9.270;2023-07-30T03:44:17;17.80;1.00
9323;DHT22;4700;48.822;9.270;2023-07-30T03:47:03;17.20;1.00
9323;DHT22;4700;48.822;9.270;2023-07-30T03:49:48;17.50;1.00
9323;DHT22;4700;48.822;9.270;2023-07-30T03:52:36;17.60;1.00
9323;DHT22;4700;48.822;9.270;2023-07-30T03:55:21;17.70;1.00
9323;DHT22;4700;48.822;9.270;2023-07-30T03:58:07;17.20;1.00
9323;DHT22;4700;48.822;9.270;2023-07-30T04:03:38;17.70;1.00
9323;DHT22;4700;48.822;9.270;2023-07-30T04:06:26;17.60;1.00
9323;DHT22;4700;48.822;9.270;2023-07-30T04:09:13;17.70;1.00
9323;DHT22;4700;48.822;9.270;2023-07-30T04:11:59;17.80;1.00
9323;DHT22;4700;48.822;9.270;2023-07-30T04:14:45;18.20;1.00
9323;DHT22;4700;48.822;9.270;2023-07-30T04:17:31;17.90;1.00
9323;DHT22;4700;48.822;9.270;2023-07-30T04:20:16;17.70;1.00
9323;DHT22;4700;48.822;9.270;2023-07-30T04:23:05;18.00;1.00
9323;DHT22;4700;48.822;9.270;2023-07-30T04:25:52;17.80;1.00
9323;DHT22;4700;48.822;9.270;2023-07-30T04:31:23;18.00;1.00
9323;DHT22;4700;48.822;9.270;2023-07-30T04:34:09;18.20;1.00
9323;DHT22;4700;48.822;9.270;2023-07-30T04:36:56;18.00;1.00
9323;DHT22;4700;48.822;9.270;2023-07-30T04:39:42;17.80;1.00
9323;DHT22;4700;48.822;9.270;2023-07-30T04:42:29;18.00;1.00
9323;DHT22;4700;48.822;9.270;2023-07-30T04:45:15;17.00;32.60
9323;DHT22;4700;48.822;9.270;2023-07-30T04:48:01;17.90;1.00
9323;DHT22;4700;48.822;9.270;2023-07-30T04:50:47;18.00;1.00
9323;DHT22;4700;48.822;9.270;2023-07-30T04:53:35;17.70;1.00
9323;DHT22;4700;48.822;9.270;2023-07-30T04:56:21;17.70;1.00
9323;DHT22;4700;48.822;9.270;2023-07-30T05:01:58;17.80;1.00
9323;DHT22;4700;48.822;9.270;2023-07-30T05:04:44;18.10;1.00
9323;DHT22;4700;48.822;9.270;2023-07-30T05:07:30;18.10;1.00
9323;DHT22;4700;48.822;9.270;2023-07-30T05:10:18;18.30;1.00
9323;DHT22;4700;48.822;9.270;2023-07-30T05:13:03;18.30;1.00
9323;DHT22;4700;48.822;9.270;2023-07-30T05:15:50;18.60;1.00
9323;DHT22;4700;48.822;9.270;2023-07-30T05:18:36;18.30;1.00
9323;DHT22;4700;48.822;9.270;2023-07-30T05:21:22;18.10;1.00
9323;DHT22;4700;48.822;9.270;2023-07-30T05:24:07;18.20;1.00
9323;DHT22;4700;48.822;9.270;2023-07-30T05:26:53;18.20;1.00
9323;DHT22;4700;48.822;9.270;2023-07-30T05:29:39;18.10;1.00
9323;DHT22;4700;48.822;9.270;2023-07-30T05:32:27;18.00;1.00
9323;DHT22;4700;48.822;9.270;2023-07-30T05:35:12;18.10;1.00
9323;DHT22;4700;48.822;9.270;2023-07-30T05:37:59;17.90;1.00
9323;DHT22;4700;48.822;9.270;2023-07-30T05:40:45;18.00;1.00
9323;DHT22;4700;48.822;9.270;2023-07-30T05:46:16;18.10;1.00
9323;DHT22;4700;48.822;9.270;2023-07-30T05:49:03;18.30;1.00
9323;DHT22;4700;48.822;9.270;2023-07-30T05:51:49;18.10;1.00
9323;DHT22;4700;48.822;9.270;2023-07-30T05:54:35;18.00;1.00
9323;DHT22;4700;48.822;9.270;2023-07-30T05:57:20;18.00;1.00
9323;DHT22;4700;48.822;9.270;2023-07-30T06:00:07;18.30;1.00
9323;DHT22;4700;48.822;9.270;2023-07-30T06:02:53;18.10;1.00
9323;DHT22;4700;48.822;9.270;2023-07-30T06:05:41;18.10;1.00
9323;DHT22;4700;48.822;9.270;2023-07-30T06:08:26;18.10;1.00
9323;DHT22;4700;48.822;9.270;2023-07-30T06:11:14;18.50;1.00
9323;DHT22;4700;48.822;9.270;2023-07-30T06:13:59;18.50;1.00
9323;DHT22;4700;48.822;9.270;2023-07-30T06:16:45;18.80;1.00
9323;DHT22;4700;48.822;9.270;2023-07-30T06:19:31;19.00;1.00
9323;DHT22;4700;48.822;9.270;2023-07-30T06:22:18;19.40;1.00
9323;DHT22;4700;48.822;9.270;2023-07-30T06:27:50;19.30;1.00
9323;DHT22;4700;48.822;9.270;2023-07-30T06:30:36;19.50;1.00
9323;DHT22;4700;48.822;9.270;2023-07-30T06:33:23;19.60;1.00
9323;DHT22;4700;48.822;9.270;2023-07-30T06:36:08;19.80;1.00
9323;DHT22;4700;48.822;9.270;2023-07-30T06:38:55;20.00;1.00
9323;DHT22;4700;48.822;9.270;2023-07-30T06:41:41;20.10;1.00
9323;DHT22;4700;48.822;9.270;2023-07-30T06:44:27;20.40;1.00
9323;DHT22;4700;48.822;9.270;2023-07-30T06:47:12;21.20;1.00
9323;DHT22;4700;48.822;9.270;2023-07-30T06:49:58;22.50;1.00
9323;DHT22;4700;48.822;9.270;2023-07-30T06:55:31;25.20;1.00
9323;DHT22;4700;48.822;9.270;2023-07-30T06:58:16;24.80;1.00
9323;DHT22;4700;48.822;9.270;2023-07-30T07:01:02;24.20;1.00
9323;DHT22;4700;48.822;9.270;2023-07-30T07:03:48;24.20;1.00
9323;DHT22;4700;48.822;9.270;2023-07-30T07:06:33;23.40;1.00
9323;DHT22;4700;48.822;9.270;2023-07-30T07:09:19;22.70;1.00
9323;DHT22;4700;48.822;9.270;2023-07-30T07:12:07;22.70;1.00
9323;DHT22;4700;48.822;9.270;2023-07-30T07:14:53;22.00;1.00
9323;DHT22;4700;48.822;9.270;2023-07-30T07:17:42;21.50;1.00
9323;DHT22;4700;48.822;9.270;2023-07-30T07:23:14;20.80;1.00
9323;DHT22;4700;48.822;9.270;2023-07-30T07:25:59;20.50;1.00
9323;DHT22;4700;48.822;9.270;2023-07-30T07:28:46;20.50;1.00
9323;DHT22;4700;48.822;9.270;2023-07-30T07:31:32;20.30;1.00
9323;DHT22;4700;48.822;9.270;2023-07-30T07:34:17;20.20;1.00
9323;DHT22;4700;48.822;9.270;2023-07-30T07:37:03;20.10;1.00
9323;DHT22;4700;48.822;9.270;2023-07-30T07:39:49;19.90;1.00
9323;DHT22;4700;48.822;9.270;2023-07-30T07:42:35;20.00;1.00
9323;DHT22;4700;48.822;9.270;2023-07-30T07:45:23;20.10;1.00
9323;DHT22;4700;48.822;9.270;2023-07-30T07:48:08;19.90;1.00
9323;DHT22;4700;48.822;9.270;2023-07-30T07:50:57;19.60;1.00
9323;DHT22;4700;48.822;9.270;2023-07-30T07:53:43;19.50;1.00
9323;DHT22;4700;48.822;9.270;2023-07-30T07:56:29;18.80;1.00
9323;DHT22;4700;48.822;9.270;2023-07-30T07:59:15;18.90;1.00
9323;DHT22;4700;48.822;9.270;2023-07-30T08:02:02;18.50;1.00
9323;DHT22;4700;48.822;9.270;2023-07-30T08:04:48;18.60;1.00
9323;DHT22;4700;48.822;9.270;2023-07-30T08:07:34;18.80;1.00
9323;DHT22;4700;48.822;9.270;2023-07-30T08:10:20;18.90;1.00
9323;DHT22;4700;48.822;9.270;2023-07-30T08:13:06;19.30;1.00
9323;DHT22;4700;48.822;9.270;2023-07-30T08:15:52;19.90;1.00
9323;DHT22;4700;48.822;9.270;2023-07-30T08:21:25;20.40;1.00
9323;DHT22;4700;48.822;9.270;2023-07-30T08:24:11;20.70;1.00
9323;DHT22;4700;48.822;9.270;2023-07-30T08:26:56;21.00;1.00
9323;DHT22;4700;48.822;9.270;2023-07-30T08:29:44;21.00;1.00
9323;DHT22;4700;48.822;9.270;2023-07-30T08:32:30;21.40;1.00
9323;DHT22;4700;48.822;9.270;2023-07-30T08:35:17;21.70;1.00
9323;DHT22;4700;48.822;9.270;2023-07-30T08:38:03;23.60;1.00
9323;DHT22;4700;48.822;9.270;2023-07-30T08:40:48;23.80;1.00
9323;DHT22;4700;48.822;9.270;2023-07-30T08:43:34;27.10;1.00
9323;DHT22;4700;48.822;9.270;2023-07-30T08:46:23;27.10;1.00
9323;DHT22;4700;48.822;9.270;2023-07-30T08:49:09;26.60;1.00
9323;DHT22;4700;48.822;9.270;2023-07-30T08:51:56;26.30;1.00
9323;DHT22;4700;48.822;9.270;2023-07-30T08:54:42;26.30;1.00
9323;DHT22;4700;48.822;9.270;2023-07-30T08:57:30;26.30;1.00
9323;DHT22;4700;48.822;9.270;2023-07-30T09:00:19;25.50;1.00
9323;DHT22;4700;48.822;9.270;2023-07-30T09:03:05;24.70;1.00
9323;DHT22;4700;48.822;9.270;2023-07-30T09:05:51;24.30;1.00
9323;DHT22;4700;48.822;9.270;2023-07-30T09:08:38;24.00;1.00
9323;DHT22;4700;48.822;9.270;2023-07-30T09:11:27;23.40;1.00
9323;DHT22;4700;48.822;9.270;2023-07-30T09:14:13;23.30;1.00
9323;DHT22;4700;48.822;9.270;2023-07-30T09:16:58;23.60;1.00
9323;DHT22;4700;48.822;9.270;2023-07-30T09:22:32;24.30;1.00
9323;DHT22;4700;48.822;9.270;2023-07-30T09:25:24;24.00;1.00
9323;DHT22;4700;48.822;9.270;2023-07-30T09:28:10;24.00;1.00
9323;DHT22;4700;48.822;9.270;2023-07-30T09:31:00;23.70;1.00
9323;DHT22;4700;48.822;9.270;2023-07-30T09:33:45;23.70;1.00
9323;DHT22;4700;48.822;9.270;2023-07-30T09:36:31;23.70;1.00
9323;DHT22;4700;48.822;9.270;2023-07-30T09:39:18;23.80;1.00
9323;DHT22;4700;48.822;9.270;2023-07-30T09:42:06;23.40;1.00
9323;DHT22;4700;48.822;9.270;2023-07-30T09:44:51;23.50;1.00
9323;DHT22;4700;48.822;9.270;2023-07-30T09:47:37;22.90;1.00
9323;DHT22;4700;48.822;9.270;2023-07-30T09:50:23;22.20;1.00
9323;DHT22;4700;48.822;9.270;2023-07-30T09:53:09;22.10;1.00
9323;DHT22;4700;48.822;9.270;2023-07-30T09:56:03;22.10;1.00
9323;DHT22;4700;48.822;9.270;2023-07-30T09:58:51;22.10;1.00
9323;DHT22;4700;48.822;9.270;2023-07-30T10:01:41;22.00;1.00
9323;DHT22;4700;48.822;9.270;2023-07-30T10:04:29;22.10;1.00
9323;DHT22;4700;48.822;9.270;2023-07-30T10:07:19;21.80;1.00
9323;DHT22;4700;48.822;9.270;2023-07-30T10:10:05;22.00;1.00
9323;DHT22;4700;48.822;9.270;2023-07-30T10:12:53;22.00;1.00
9323;DHT22;4700;48.822;9.270;2023-07-30T10:15:42;22.20;1.00
9323;DHT22;4700;48.822;9.270;2023-07-30T10:18:33;22.80;1.00
9323;DHT22;4700;48.822;9.270;2023-07-30T10:21:24;24.20;1.00
9323;DHT22;4700;48.822;9.270;2023-07-30T10:24:10;24.80;1.00
9323;DHT22;4700;48.822;9.270;2023-07-30T10:26:56;25.20;1.00
9323;DHT22;4700;48.822;9.270;2023-07-30T10:29:43;26.10;1.00
9323;DHT22;4700;48.822;9.270;2023-07-30T10:32:38;26.30;1.00
9323;DHT22;4700;48.822;9.270;2023-07-30T10:35:36;26.50;1.00
9323;DHT22;4700;48.822;9.270;2023-07-30T10:38:27;26.20;1.00
9323;DHT22;4700;48.822;9.270;2023-07-30T10:41:18;26.10;1.00
9323;DHT22;4700;48.822;9.270;2023-07-30T10:44:07;25.60;1.00
9323;DHT22;4700;48.822;9.270;2023-07-30T10:46:55;25.40;1.00
9323;DHT22;4700;48.822;9.270;2023-07-30T10:49:42;26.30;1.00
9323;DHT22;4700;48.822;9.270;2023-07-30T10:52:31;25.40;1.00
9323;DHT22;4700;48.822;9.270;2023-07-30T10:55:16;24.90;1.00
9323;DHT22;4700;48.822;9.270;2023-07-30T10:58:03;24.60;1.00
9323;DHT22;4700;48.822;9.270;2023-07-30T11:00:49;24.40;1.00
9323;DHT22;4700;48.822;9.270;2023-07-30T11:03:35;24.40;1.00
9323;DHT22;4700;48.822;9.270;2023-07-30T11:06:24;24.20;1.00
9323;DHT22;4700;48.822;9.270;2023-07-30T11:09:18;23.80;1.00
9323;DHT22;4700;48.822;9.270;2023-07-30T11:12:08;23.90;1.00
9323;DHT22;4700;48.822;9.270;2023-07-30T11:15:01;24.00;1.00
9323;DHT22;4700;48.822;9.270;2023-07-30T11:17:47;24.20;1.00
9323;DHT22;4700;48.822;9.270;2023-07-30T11:20:34;24.20;1.00
9323;DHT22;4700;48.822;9.270;2023-07-30T11:23:22;24.20;1.00
9323;DHT22;4700;48.822;9.270;2023-07-30T11:26:12;24.10;1.00
9323;DHT22;4700;48.822;9.270;2023-07-30T11:28:58;23.70;1.00
9323;DHT22;4700;48.822;9.270;2023-07-30T11:31:45;23.40;1.00
9323;DHT22;4700;48.822;9.270;2023-07-30T11:34:33;23.40;1.00
9323;DHT22;4700;48.822;9.270;2023-07-30T11:37:23;22.40;1.00
9323;DHT22;4700;48.822;9.270;2023-07-30T11:40:11;22.20;1.00
9323;DHT22;4700;48.822;9.270;2023-07-30T11:42:57;22.40;1.00
9323;DHT22;4700;48.822;9.270;2023-07-30T11:45:43;22.70;1.00
9323;DHT22;4700;48.822;9.270;2023-07-30T11:48:29;22.60;1.00
9323;DHT22;4700;48.822;9.270;2023-07-30T11:51:25;22.50;1.00
9323;DHT22;4700;48.822;9.270;2023-07-30T11:54:19;22.30;1.00
9323;DHT22;4700;48.822;9.270;2023-07-30T11:57:07;22.10;1.00
9323;DHT22;4700;48.822;9.270;2023-07-30T11:59:53;21.90;1.00
9323;DHT22;4700;48.822;9.270;2023-07-30T12:05:32;21.80;1.00
9323;DHT22;4700;48.822;9.270;2023-07-30T12:08:25;22.00;1.00
9323;DHT22;4700;48.822;9.270;2023-07-30T12:11:12;22.30;1.00
9323;DHT22;4700;48.822;9.270;2023-07-30T12:13:58;22.30;1.00
9323;DHT22;4700;48.822;9.270;2023-07-30T12:16:44;22.50;1.00
9323;DHT22;4700;48.822;9.270;2023-07-30T12:19:30;22.60;1.00
9323;DHT22;4700;48.822;9.270;2023-07-30T12:22:16;22.40;1.00
9323;DHT22;4700;48.822;9.270;2023-07-30T12:25:01;22.40;1.00
9323;DHT22;4700;48.822;9.270;2023-07-30T12:27:48;22.80;1.00
9323;DHT22;4700;48.822;9.270;2023-07-30T12:30:35;22.50;1.00
9323;DHT22;4700;48.822;9.270;2023-07-30T12:33:21;22.60;1.00
9323;DHT22;4700;48.822;9.270;2023-07-30T12:38:52;23.00;1.00
9323;DHT22;4700;48.822;9.270;2023-07-30T12:41:38;22.80;1.00
9323;DHT22;4700;48.822;9.270;2023-07-30T12:44:23;22.80;1.00
9323;DHT22;4700;48.822;9.270;2023-07-30T12:47:11;22.70;1.00
9323;DHT22;4700;48.822;9.270;2023-07-30T12:49:56;23.00;1.00
9323;DHT22;4700;48.822;9.270;2023-07-30T12:52:45;23.00;1.00
9323;DHT22;4700;48.822;9.270;2023-07-30T12:55:30;23.00;1.00
9323;DHT22;4700;48.822;9.270;2023-07-30T12:58:16;22.80;1.00
9323;DHT22;4700;48.822;9.270;2023-07-30T13:01:02;22.50;1.00
9323;DHT22;4700;48.822;9.270;2023-07-30T13:03:50;23.10;1.00
9323;DHT22;4700;48.822;9.270;2023-07-30T13:06:38;22.80;1.00
9323;DHT22;4700;48.822;9.270;2023-07-30T13:09:24;22.70;1.00
9323;DHT22;4700;48.822;9.270;2023-07-30T13:12:09;22.70;1.00
9323;DHT22;4700;48.822;9.270;2023-07-30T13:14:55;22.80;1.00
9323;DHT22;4700;48.822;9.270;2023-07-30T13:17:41;23.70;1.00
9323;DHT22;4700;48.822;9.270;2023-07-30T13:20:28;23.50;1.00
9323;DHT22;4700;48.822;9.270;2023-07-30T13:23:15;23.60;1.00
9323;DHT22;4700;48.822;9.270;2023-07-30T13:26:00;23.70;1.00
9323;DHT22;4700;48.822;9.270;2023-07-30T13:28:47;23.90;1.00
9323;DHT22;4700;48.822;9.270;2023-07-30T13:31:33;24.10;1.00
9323;DHT22;4700;48.822;9.270;2023-07-30T13:34:18;24.00;1.00
9323;DHT22;4700;48.822;9.270;2023-07-30T13:37:06;24.20;1.00
9323;DHT22;4700;48.822;9.270;2023-07-30T13:39:51;24.30;1.00
9323;DHT22;4700;48.822;9.270;2023-07-30T13:42:37;24.40;1.00
9323;DHT22;4700;48.822;9.270;2023-07-30T13:45:23;24.40;1.00
9323;DHT22;4700;48.822;9.270;2023-07-30T13:48:08;24.50;1.00
9323;DHT22;4700;48.822;9.270;2023-07-30T13:53:42;24.30;1.00
9323;DHT22;4700;48.822;9.270;2023-07-30T13:56:29;23.70;1.00
9323;DHT22;4700;48.822;9.270;2023-07-30T13:59:15;23.60;1.00
9323;DHT22;4700;48.822;9.270;2023-07-30T14:04:49;23.70;1.00
9323;DHT22;4700;48.822;9.270;2023-07-30T14:07:35;23.80;1.00
9323;DHT22;4700;48.822;9.270;2023-07-30T14:10:25;23.40;1.00
9323;DHT22;4700;48.822;9.270;2023-07-30T14:13:11;23.30;1.00
9323;DHT22;4700;48.822;9.270;2023-07-30T14:15:56;23.30;1.00
9323;DHT22;4700;48.822;9.270;2023-07-30T14:18:42;23.20;1.00
9323;DHT22;4700;48.822;9.270;2023-07-30T14:21:27;23.00;1.00
9323;DHT22;4700;48.822;9.270;2023-07-30T14:24:13;23.20;1.00
9323;DHT22;4700;48.822;9.270;2023-07-30T14:27:00;23.40;1.00
9323;DHT22;4700;48.822;9.270;2023-07-30T14:29:45;23.40;1.00
9323;DHT22;4700;48.822;9.270;2023-07-30T14:32:31;22.90;1.00
9323;DHT22;4700;48.822;9.270;2023-07-30T14:35:17;22.80;1.00
9323;DHT22;4700;48.822;9.270;2023-07-30T14:38:03;22.90;1.00
9323;DHT22;4700;48.822;9.270;2023-07-30T14:40:48;23.10;1.00
9323;DHT22;4700;48.822;9.270;2023-07-30T14:43:35;23.00;1.00
9323;DHT22;4700;48.822;9.270;2023-07-30T14:46:24;23.00;1.00
9323;DHT22;4700;48.822;9.270;2023-07-30T14:49:12;23.30;1.00
9323;DHT22;4700;48.822;9.270;2023-07-30T14:51:58;23.10;1.00
9323;DHT22;4700;48.822;9.270;2023-07-30T14:54:44;23.00;1.00
9323;DHT22;4700;48.822;9.270;2023-07-30T14:57:29;23.00;1.00
9323;DHT22;4700;48.822;9.270;2023-07-30T15:00:18;22.70;1.00
9323;DHT22;4700;48.822;9.270;2023-07-30T15:03:04;22.90;1.00
9323;DHT22;4700;48.822;9.270;2023-07-30T15:05:50;22.80;1.00
9323;DHT22;4700;48.822;9.270;2023-07-30T15:08:36;22.80;1.00
9323;DHT22;4700;48.822;9.270;2023-07-30T15:11:23;22.60;1.00
9323;DHT22;4700;48.822;9.270;2023-07-30T15:14:09;22.50;1.00
9323;DHT22;4700;48.822;9.270;2023-07-30T15:16:57;22.70;1.00
9323;DHT22;4700;48.822;9.270;2023-07-30T15:19:43;22.70;1.00
9323;DHT22;4700;48.822;9.270;2023-07-30T15:22:31;22.90;1.00
9323;DHT22;4700;48.822;9.270;2023-07-30T15:25:16;22.80;1.00
9323;DHT22;4700;48.822;9.270;2023-07-30T15:28:03;22.90;1.00
9323;DHT22;4700;48.822;9.270;2023-07-30T15:30:48;22.90;1.00
9323;DHT22;4700;48.822;9.270;2023-07-30T15:33:38;22.90;1.00
9323;DHT22;4700;48.822;9.270;2023-07-30T15:36:24;23.00;1.00
9323;DHT22;4700;48.822;9.270;2023-07-30T15:39:09;23.30;1.00
9323;DHT22;4700;48.822;9.270;2023-07-30T15:41:58;23.10;1.00
9323;DHT22;4700;48.822;9.270;2023-07-30T15:44:43;22.90;1.00
9323;DHT22;4700;48.822;9.270;2023-07-30T15:47:31;23.00;1.00
9323;DHT22;4700;48.822;9.270;2023-07-30T15:50:18;22.90;1.00
9323;DHT22;4700;48.822;9.270;2023-07-30T15:53:08;22.90;1.00
9323;DHT22;4700;48.822;9.270;2023-07-30T15:55:53;22.60;1.00
9323;DHT22;4700;48.822;9.270;2023-07-30T15:58:39;22.70;1.00
9323;DHT22;4700;48.822;9.270;2023-07-30T16:01:25;22.70;1.00
9323;DHT22;4700;48.822;9.270;2023-07-30T16:04:10;22.90;1.00
9323;DHT22;4700;48.822;9.270;2023-07-30T16:06:57;22.80;1.00
9323;DHT22;4700;48.822;9.270;2023-07-30T16:09:44;22.80;1.00
9323;DHT22;4700;48.822;9.270;2023-07-30T16:12:30;22.80;1.00
9323;DHT22;4700;48.822;9.270;2023-07-30T16:15:18;22.70;1.00
9323;DHT22;4700;48.822;9.270;2023-07-30T16:18:04;22.50;1.00
9323;DHT22;4700;48.822;9.270;2023-07-30T16:21:00;22.60;1.00
9323;DHT22;4700;48.822;9.270;2023-07-30T16:23:47;22.30;1.00
9323;DHT22;4700;48.822;9.270;2023-07-30T16:26:33;22.40;1.00
9323;DHT22;4700;48.822;9.270;2023-07-30T16:29:19;22.40;1.00
9323;DHT22;4700;48.822;9.270;2023-07-30T16:32:05;22.20;1.00
9323;DHT22;4700;48.822;9.270;2023-07-30T16:34:50;22.20;1.00
9323;DHT22;4700;48.822;9.270;2023-07-30T16:37:36;22.10;1.00
9323;DHT22;4700;48.822;9.270;2023-07-30T16:40:23;22.20;1.00
9323;DHT22;4700;48.822;9.270;2023-07-30T16:43:09;21.90;1.00
9323;DHT22;4700;48.822;9.270;2023-07-30T16:45:58;22.00;1.00
9323;DHT22;4700;48.822;9.270;2023-07-30T16:48:43;21.90;1.00
9323;DHT22;4700;48.822;9.270;2023-07-30T16:51:29;21.80;1.00
9323;DHT22;4700;48.822;9.270;2023-07-30T16:54:15;21.70;1.00
9323;DHT22;4700;48.822;9.270;2023-07-30T16:57:02;21.70;1.00
9323;DHT22;4700;48.822;9.270;2023-07-30T16:59:47;21.60;1.00
9323;DHT22;4700;48.822;9.270;2023-07-30T17:02:33;21.50;1.00
9323;DHT22;4700;48.822;9.270;2023-07-30T17:05:19;21.50;1.00
9323;DHT22;4700;48.822;9.270;2023-07-30T17:08:04;21.40;1.00
9323;DHT22;4700;48.822;9.270;2023-07-30T17:10:51;21.50;1.00
9323;DHT22;4700;48.822;9.270;2023-07-30T17:13:38;21.20;1.00
9323;DHT22;4700;48.822;9.270;2023-07-30T17:16:24;21.30;1.00
9323;DHT22;4700;48.822;9.270;2023-07-30T17:19:10;21.10;1.00
9323;DHT22;4700;48.822;9.270;2023-07-30T17:21:56;21.20;1.00
9323;DHT22;4700;48.822;9.270;2023-07-30T17:24:41;21.30;1.00
9323;DHT22;4700;48.822;9.270;2023-07-30T17:27:30;21.40;1.00
9323;DHT22;4700;48.822;9.270;2023-07-30T17:30:17;21.50;1.00
9323;DHT22;4700;48.822;9.270;2023-07-30T17:33:03;21.60;1.00
9323;DHT22;4700;48.822;9.270;2023-07-30T17:35:48;21.60;1.00
9323;DHT22;4700;48.822;9.270;2023-07-30T17:38:34;21.70;1.00
9323;DHT22;4700;48.822;9.270;2023-07-30T17:41:20;21.80;1.00
9323;DHT22;4700;48.822;9.270;2023-07-30T17:44:05;21.80;1.00
9323;DHT22;4700;48.822;9.270;2023-07-30T17:46:52;21.80;1.00
9323;DHT22;4700;48.822;9.270;2023-07-30T17:49:38;21.50;1.00
9323;DHT22;4700;48.822;9.270;2023-07-30T17:52:24;21.50;1.00
9323;DHT22;4700;48.822;9.270;2023-07-30T17:55:10;21.20;1.00
9323;DHT22;4700;48.822;9.270;2023-07-30T17:57:55;21.10;1.00
9323;DHT22;4700;48.822;9.270;2023-07-30T18:00:43;20.70;1.00
9323;DHT22;4700;48.822;9.270;2023-07-30T18:06:18;20.60;1.00
9323;DHT22;4700;48.822;9.270;2023-07-30T18:09:04;20.40;1.00
9323;DHT22;4700;48.822;9.270;2023-07-30T18:14:37;20.20;1.00
9323;DHT22;4700;48.822;9.270;2023-07-30T18:17:22;20.20;1.00
9323;DHT22;4700;48.822;9.270;2023-07-30T18:20:12;20.10;1.00
9323;DHT22;4700;48.822;9.270;2023-07-30T18:22:58;20.00;1.00
9323;DHT22;4700;48.822;9.270;2023-07-30T18:25:44;20.00;1.00
9323;DHT22;4700;48.822;9.270;2023-07-30T18:28:30;19.90;1.00
9323;DHT22;4700;48.822;9.270;2023-07-30T18:31:19;19.80;1.00
9323;DHT22;4700;48.822;9.270;2023-07-30T18:34:04;19.60;1.00
9323;DHT22;4700;48.822;9.270;2023-07-30T18:36:51;19.60;1.00
9323;DHT22;4700;48.822;9.270;2023-07-30T18:39:37;19.70;1.00
9323;DHT22;4700;48.822;9.270;2023-07-30T18:42:23;19.50;1.00
9323;DHT22;4700;48.822;9.270;2023-07-30T18:45:09;19.50;1.00
9323;DHT22;4700;48.822;9.270;2023-07-30T18:47:55;19.50;1.00
9323;DHT22;4700;48.822;9.270;2023-07-30T18:50:41;19.30;1.00
9323;DHT22;4700;48.822;9.270;2023-07-30T18:53:28;19.50;1.00
9323;DHT22;4700;48.822;9.270;2023-07-30T18:56:14;19.20;1.00
9323;DHT22;4700;48.822;9.270;2023-07-30T18:59:00;19.20;1.00
9323;DHT22;4700;48.822;9.270;2023-07-30T19:01:46;19.10;1.00
9323;DHT22;4700;48.822;9.270;2023-07-30T19:04:16;19.10;1.00
9323;DHT22;4700;48.822;9.270;2023-07-30T19:07:02;19.20;1.00
9323;DHT22;4700;48.822;9.270;2023-07-30T19:09:49;18.90;1.00
9323;DHT22;4700;48.822;9.270;2023-07-30T19:12:34;18.90;1.00
9323;DHT22;4700;48.822;9.270;2023-07-30T19:15:20;18.90;1.00